Time,TemperatureF,DewpointF,PressureIn,WindDirection,WindDirectionDegrees,WindSpeedMPH,WindSpeedGustMPH,Humidity,HourlyPrecipIn,Conditions,Clouds,dailyrainin,SoftwareType,DateUTC
2013-08-04 00:00:00,64.2,48.2,29.12,North,-999,-999.0,-999.0,56,-99.99,,,-99.99,WSDL version 420,2013-08-04 04:00:00,
2013-08-04 00:02:00,64.2,48.2,29.12,North,-999,-999.0,-999.0,56,0.00,,,0.00,WSDL version 420,2013-08-04 04:02:00,
2013-08-04 00:04:00,64.2,48.2,29.12,North,-999,-999.0,-999.0,56,0.00,,,0.00,WSDL version 420,2013-08-04 04:04:00,
2013-08-04 00:08:00,64.3,48.5,29.12,North,-999,-999.0,-999.0,56,0.00,,,0.00,WSDL version 420,2013-08-04 04:08:00,
2013-08-04 00:11:00,64.4,48.6,29.12,North,-999,-999.0,-999.0,57,0.00,,,0.00,WSDL version 420,2013-08-04 04:11:00,
2013-08-04 00:16:00,64.4,48.9,29.12,North,-999,-999.0,-999.0,57,0.00,,,0.00,WSDL version 420,2013-08-04 04:16:00,
2013-08-04 00:22:00,64.4,48.9,29.12,North,-999,-999.0,-999.0,57,0.00,,,0.00,WSDL version 420,2013-08-04 04:22:00,
2013-08-04 00:28:00,64.5,49.0,29.12,North,-999,-999.0,-999.0,57,0.00,,,0.00,WSDL version 420,2013-08-04 04:28:00,
2013-08-04 00:33:00,64.6,49.5,-100.00,North,-999,-999.0,-999.0,58,-99.99,,,-99.99,WSDL version 420,2013-08-04 04:33:00,
2013-08-04 00:39:00,64.7,49.6,-100.00,North,-999,-999.0,-999.0,58,0.00,,,0.00,WSDL version 420,2013-08-04 04:39:00,
2013-08-04 00:43:00,64.8,49.8,-100.00,North,-999,-999.0,-999.0,59,0.00,,,0.00,WSDL version 420,2013-08-04 04:43:00,
2013-08-04 00:49:00,64.8,50.1,29.12,North,-999,-999.0,-999.0,59,0.00,,,0.00,WSDL version 420,2013-08-04 04:49:00,
2013-08-04 00:55:00,64.8,50.1,29.12,NNW,338,0.0,0.0,59,0.00,,,0.00,WSDL version 420,2013-08-04 04:55:00,
2013-08-04 01:01:00,64.8,50.1,29.12,NNW,338,0.0,0.0,59,0.00,,,0.00,WSDL version 420,2013-08-04 05:01:00,
2013-08-04 01:07:00,64.8,50.1,29.12,North,0,0.0,0.0,59,0.00,,,0.00,WSDL version 420,2013-08-04 05:07:00,
2013-08-04 01:13:00,64.6,49.9,29.12,North,-999,-999.0,-999.0,59,-99.99,,,-99.99,WSDL version 420,2013-08-04 05:13:00,
2013-08-04 01:19:00,64.6,50.4,29.12,North,-999,-999.0,-999.0,60,0.00,,,0.00,WSDL version 420,2013-08-04 05:19:00,
2013-08-04 01:38:00,64.2,50.2,29.12,North,-999,-999.0,-999.0,61,0.00,,,0.00,WSDL version 420,2013-08-04 05:38:00,
2013-08-04 01:44:00,64.1,50.4,-100.00,North,-999,-999.0,-999.0,61,0.00,,,0.00,WSDL version 420,2013-08-04 05:44:00,
2013-08-04 01:50:00,63.8,50.1,-100.00,North,-999,-999.0,-999.0,61,0.00,,,0.00,WSDL version 420,2013-08-04 05:50:00,
2013-08-04 01:56:00,63.5,49.9,29.12,North,-999,-999.0,-999.0,61,0.00,,,0.00,WSDL version 420,2013-08-04 05:56:00,
2013-08-04 02:02:00,63.2,49.5,29.12,North,-999,-999.0,-999.0,61,0.00,,,0.00,WSDL version 420,2013-08-04 06:02:00,
2013-08-04 02:08:00,63.0,49.6,29.12,North,-999,-999.0,-999.0,61,0.00,,,0.00,WSDL version 420,2013-08-04 06:08:00,
2013-08-04 02:14:00,62.7,49.5,29.12,North,-999,-999.0,-999.0,62,0.00,,,0.00,WSDL version 420,2013-08-04 06:14:00,
2013-08-04 02:20:00,62.5,49.5,29.12,North,-999,-999.0,-999.0,63,0.00,,,0.00,WSDL version 420,2013-08-04 06:20:00,
2013-08-04 02:27:00,62.2,49.7,29.12,North,-999,-999.0,-999.0,64,0.00,,,0.00,WSDL version 420,2013-08-04 06:27:00,
2013-08-04 02:33:00,62.1,49.8,29.12,North,-999,-999.0,-999.0,64,0.00,,,0.00,WSDL version 420,2013-08-04 06:33:00,
2013-08-04 02:39:00,62.1,49.8,29.12,North,-999,-999.0,-999.0,64,-99.99,,,-99.99,WSDL version 420,2013-08-04 06:39:00,
2013-08-04 02:56:00,61.7,49.8,29.12,North,-999,-999.0,-999.0,65,-99.99,,,-99.99,WSDL version 420,2013-08-04 06:56:00,
2013-08-04 03:02:00,61.7,49.8,29.12,North,-999,-999.0,-999.0,65,0.00,,,0.00,WSDL version 420,2013-08-04 07:02:00,
2013-08-04 03:07:00,61.7,49.8,29.12,North,-999,-999.0,-999.0,65,-99.99,,,-99.99,WSDL version 420,2013-08-04 07:07:00,
2013-08-04 03:14:00,61.5,50.1,29.12,North,-999,-999.0,-999.0,66,0.00,,,0.00,WSDL version 420,2013-08-04 07:14:00,
2013-08-04 03:20:00,61.3,49.9,29.12,North,-999,-999.0,-999.0,66,-99.99,,,-99.99,WSDL version 420,2013-08-04 07:20:00,
2013-08-04 03:27:00,61.3,49.9,29.12,North,-999,-999.0,-999.0,66,0.00,,,0.00,WSDL version 420,2013-08-04 07:27:00,
2013-08-04 03:33:00,61.3,49.9,29.12,North,-999,-999.0,-999.0,66,0.00,,,0.00,WSDL version 420,2013-08-04 07:33:00,
2013-08-04 03:38:00,61.3,49.9,29.12,North,-999,-999.0,-999.0,66,0.00,,,0.00,WSDL version 420,2013-08-04 07:38:00,
2013-08-04 03:53:00,61.3,50.3,-100.00,North,-999,-999.0,-999.0,67,0.00,,,0.00,WSDL version 420,2013-08-04 07:53:00,
2013-08-04 04:00:00,61.3,50.3,29.12,North,-999,-999.0,-999.0,67,0.00,,,0.00,WSDL version 420,2013-08-04 08:00:00,
2013-08-04 04:06:00,61.5,50.4,29.12,North,-999,-999.0,-999.0,67,-99.99,,,-99.99,WSDL version 420,2013-08-04 08:06:00,
2013-08-04 04:12:00,61.7,50.6,-100.00,North,-999,-999.0,-999.0,67,0.00,,,0.00,WSDL version 420,2013-08-04 08:12:00,
2013-08-04 04:17:00,61.9,50.8,29.12,North,-999,-999.0,-999.0,67,0.00,,,0.00,WSDL version 420,2013-08-04 08:17:00,
2013-08-04 04:23:00,61.9,50.8,-100.00,North,-999,-999.0,-999.0,67,0.00,,,0.00,WSDL version 420,2013-08-04 08:23:00,
2013-08-04 04:29:00,61.9,50.7,29.12,North,-999,-999.0,-999.0,66,0.00,,,0.00,WSDL version 420,2013-08-04 08:29:00,
2013-08-04 04:35:00,61.8,50.4,29.12,North,-999,-999.0,-999.0,66,-99.99,,,-99.99,WSDL version 420,2013-08-04 08:35:00,
2013-08-04 04:41:00,61.7,50.2,29.12,North,-999,-999.0,-999.0,66,0.00,,,0.00,WSDL version 420,2013-08-04 08:41:00,
2013-08-04 04:47:00,61.5,50.1,29.12,North,-999,-999.0,-999.0,66,0.00,,,0.00,WSDL version 420,2013-08-04 08:47:00,
2013-08-04 04:53:00,61.4,50.0,-100.00,North,-999,-999.0,-999.0,66,0.00,,,0.00,WSDL version 420,2013-08-04 08:53:00,
2013-08-04 04:59:00,61.3,50.2,-100.00,North,-999,-999.0,-999.0,67,0.00,,,0.00,WSDL version 420,2013-08-04 08:59:00,
2013-08-04 05:05:00,61.2,50.1,29.12,North,-999,-999.0,-999.0,67,0.00,,,0.00,WSDL version 420,2013-08-04 09:05:00,
2013-08-04 05:21:00,61.0,50.0,29.12,North,-999,-999.0,-999.0,67,-99.99,,,-99.99,WSDL version 420,2013-08-04 09:21:00,
2013-08-04 05:26:00,60.9,49.9,29.12,North,-999,-999.0,-999.0,67,0.00,,,0.00,WSDL version 420,2013-08-04 09:26:00,
2013-08-04 05:32:00,60.6,50.0,29.12,North,-999,-999.0,-999.0,68,0.00,,,0.00,WSDL version 420,2013-08-04 09:32:00,
2013-08-04 05:38:00,60.5,49.9,29.12,North,-999,-999.0,-999.0,68,0.00,,,0.00,WSDL version 420,2013-08-04 09:38:00,
2013-08-04 05:44:00,60.3,49.7,29.15,North,-999,-999.0,-999.0,68,-99.99,,,-99.99,WSDL version 420,2013-08-04 09:44:00,
2013-08-04 05:50:00,60.1,49.5,29.15,North,-999,-999.0,-999.0,68,-99.99,,,-99.99,WSDL version 420,2013-08-04 09:50:00,
2013-08-04 05:56:00,60.0,49.7,29.15,North,-999,-999.0,-999.0,69,-99.99,,,-99.99,WSDL version 420,2013-08-04 09:56:00,
2013-08-04 06:02:00,59.9,49.7,29.15,North,-999,-999.0,-999.0,69,0.00,,,0.00,WSDL version 420,2013-08-04 10:02:00,
2013-08-04 06:10:00,59.7,49.9,29.15,North,-999,-999.0,-999.0,70,0.00,,,0.00,WSDL version 420,2013-08-04 10:10:00,
2013-08-04 06:16:00,59.8,50.0,29.15,North,-999,-999.0,-999.0,70,0.00,,,0.00,WSDL version 420,2013-08-04 10:16:00,
2013-08-04 06:22:00,59.9,50.1,29.15,NNW,338,0.0,0.0,70,0.00,,,0.00,WSDL version 420,2013-08-04 10:22:00,
2013-08-04 06:37:00,59.9,50.1,-100.00,North,-999,-999.0,-999.0,70,-99.99,,,-99.99,WSDL version 420,2013-08-04 10:37:00,
2013-08-04 06:45:00,60.4,50.9,-100.00,NNE,23,1.1,1.1,71,-99.99,,,-99.99,WSDL version 420,2013-08-04 10:45:00,
2013-08-04 06:55:00,60.8,51.3,29.15,North,-999,-999.0,-999.0,71,-99.99,,,-99.99,WSDL version 420,2013-08-04 10:55:00,
2013-08-04 07:01:00,61.0,51.4,29.15,North,-999,-999.0,-999.0,70,-99.99,,,-99.99,WSDL version 420,2013-08-04 11:01:00,
2013-08-04 07:07:00,61.1,51.4,29.15,North,-999,-999.0,-999.0,70,-99.99,,,-99.99,WSDL version 420,2013-08-04 11:07:00,
2013-08-04 07:13:00,61.3,51.6,29.15,North,-999,-999.0,-999.0,71,0.00,,,0.00,WSDL version 420,2013-08-04 11:13:00,
2013-08-04 07:19:00,61.7,51.8,29.15,North,-999,-999.0,-999.0,70,0.00,,,0.00,WSDL version 420,2013-08-04 11:19:00,
2013-08-04 07:40:00,63.0,52.6,29.15,North,-999,-999.0,-999.0,69,0.00,,,0.00,WSDL version 420,2013-08-04 11:40:00,
2013-08-04 07:45:00,63.1,52.6,29.15,North,-999,-999.0,-999.0,68,0.00,,,0.00,WSDL version 420,2013-08-04 11:45:00,
2013-08-04 07:51:00,63.4,52.7,29.15,North,-999,-999.0,-999.0,68,0.00,,,0.00,WSDL version 420,2013-08-04 11:51:00,
2013-08-04 07:58:00,63.9,52.7,-100.00,North,-999,-999.0,-999.0,67,0.00,,,0.00,WSDL version 420,2013-08-04 11:58:00,
2013-08-04 08:04:00,63.9,52.7,29.15,North,-999,-999.0,-999.0,67,0.00,,,0.00,WSDL version 420,2013-08-04 12:04:00,
2013-08-04 08:10:00,63.9,52.7,-100.00,North,-999,-999.0,-999.0,67,0.00,,,0.00,WSDL version 420,2013-08-04 12:10:00,
2013-08-04 08:15:00,64.3,53.1,29.12,North,-999,-999.0,-999.0,67,0.00,,,0.00,WSDL version 420,2013-08-04 12:15:00,
2013-08-04 08:21:00,64.8,53.2,29.12,North,-999,-999.0,-999.0,66,0.00,,,0.00,WSDL version 420,2013-08-04 12:21:00,
2013-08-04 08:30:00,65.1,53.1,29.15,North,360,0.0,0.9,65,0.00,,,0.00,WSDL version 420,2013-08-04 12:30:00,
2013-08-04 08:36:00,65.3,52.9,29.15,North,360,0.0,0.9,64,0.00,,,0.00,WSDL version 420,2013-08-04 12:36:00,
2013-08-04 08:42:00,65.6,53.1,29.15,North,360,0.0,0.9,64,-99.99,,,-99.99,WSDL version 420,2013-08-04 12:42:00,
2013-08-04 08:53:00,66.6,53.2,29.15,North,-999,-999.0,-999.0,62,0.00,,,0.00,WSDL version 420,2013-08-04 12:53:00,
2013-08-04 08:59:00,67.4,53.9,29.15,North,-999,-999.0,-999.0,61,0.00,,,0.00,WSDL version 420,2013-08-04 12:59:00,
2013-08-04 09:04:00,66.9,52.1,29.15,North,-999,-999.0,-999.0,59,-99.99,,,-99.99,WSDL version 420,2013-08-04 13:04:00,
2013-08-04 09:18:00,66.6,51.8,29.15,North,-999,-999.0,-999.0,59,0.00,,,0.00,WSDL version 420,2013-08-04 13:18:00,
2013-08-04 09:25:00,66.9,52.4,29.15,North,-999,-999.0,-999.0,59,0.00,,,0.00,WSDL version 420,2013-08-04 13:25:00,
2013-08-04 09:33:00,67.8,52.0,-100.00,North,-999,-999.0,-999.0,57,0.00,,,0.00,WSDL version 420,2013-08-04 13:33:00,
2013-08-04 09:39:00,68.6,51.9,29.15,North,-999,-999.0,-999.0,55,0.00,,,0.00,WSDL version 420,2013-08-04 13:39:00,
2013-08-04 09:52:00,70.9,50.8,29.15,North,-999,-999.0,-999.0,49,0.00,,,0.00,WSDL version 420,2013-08-04 13:52:00,
2013-08-04 09:59:00,72.9,52.0,29.15,North,-999,-999.0,-999.0,48,0.00,,,0.00,WSDL version 420,2013-08-04 13:59:00,
2013-08-04 10:07:00,72.1,49.6,29.15,North,-999,-999.0,-999.0,45,0.00,,,0.00,WSDL version 420,2013-08-04 14:07:00,
2013-08-04 10:13:00,71.8,48.7,29.15,North,-999,-999.0,-999.0,44,0.00,,,0.00,WSDL version 420,2013-08-04 14:13:00,
2013-08-04 10:28:00,74.5,50.9,29.18,North,-999,-999.0,-999.0,44,0.00,,,0.00,WSDL version 420,2013-08-04 14:28:00,
2013-08-04 10:34:00,74.4,49.6,-100.00,North,-999,-999.0,-999.0,41,-99.99,,,-99.99,WSDL version 420,2013-08-04 14:34:00,
2013-08-04 10:39:00,74.7,50.1,29.18,North,-999,-999.0,-999.0,42,0.00,,,0.00,WSDL version 420,2013-08-04 14:39:00,
2013-08-04 10:54:00,75.7,47.8,-100.00,North,-999,-999.0,-999.0,37,0.00,,,0.00,WSDL version 420,2013-08-04 14:54:00,
2013-08-04 11:00:00,73.5,46.8,29.15,North,-999,-999.0,-999.0,39,-99.99,,,-99.99,WSDL version 420,2013-08-04 15:00:00,
2013-08-04 11:06:00,71.9,46.4,29.15,North,-999,-999.0,-999.0,41,0.00,,,0.00,WSDL version 420,2013-08-04 15:06:00,
2013-08-04 11:12:00,70.7,46.5,-100.00,North,-999,-999.0,-999.0,42,0.00,,,0.00,WSDL version 420,2013-08-04 15:12:00,
2013-08-04 11:20:00,69.1,46.3,29.18,North,-999,-999.0,-999.0,44,0.00,,,0.00,WSDL version 420,2013-08-04 15:20:00,
2013-08-04 11:25:00,69.0,46.9,29.18,North,-999,-999.0,-999.0,46,0.00,,,0.00,WSDL version 420,2013-08-04 15:25:00,
2013-08-04 11:32:00,69.8,48.5,29.18,North,-999,-999.0,-999.0,47,0.00,,,0.00,WSDL version 420,2013-08-04 15:32:00,
2013-08-04 11:38:00,74.4,50.9,29.18,North,-999,-999.0,-999.0,42,0.00,,,0.00,WSDL version 420,2013-08-04 15:38:00,
2013-08-04 11:44:00,74.4,49.0,29.18,North,-999,-999.0,-999.0,40,0.00,,,0.00,WSDL version 420,2013-08-04 15:44:00,
2013-08-04 11:49:00,72.3,47.3,29.18,North,-999,-999.0,-999.0,41,0.00,,,0.00,WSDL version 420,2013-08-04 15:49:00,
2013-08-04 11:55:00,73.1,48.5,-100.00,North,-999,-999.0,-999.0,41,0.00,,,0.00,WSDL version 420,2013-08-04 15:55:00,
2013-08-04 12:00:00,75.6,50.2,29.18,North,-999,-999.0,-999.0,41,-99.99,,,-99.99,WSDL version 420,2013-08-04 16:00:00,
2013-08-04 12:13:00,75.7,46.2,29.18,North,-999,-999.0,-999.0,35,0.00,,,0.00,WSDL version 420,2013-08-04 16:13:00,
2013-08-04 12:19:00,76.0,47.7,29.18,North,-999,-999.0,-999.0,37,0.00,,,0.00,WSDL version 420,2013-08-04 16:19:00,
2013-08-04 12:24:00,76.8,48.7,29.18,North,-999,-999.0,-999.0,37,0.00,,,0.00,WSDL version 420,2013-08-04 16:24:00,
2013-08-04 12:31:00,78.9,49.7,29.18,North,-999,-999.0,-999.0,34,-99.99,,,-99.99,WSDL version 420,2013-08-04 16:31:00,
2013-08-04 12:37:00,80.4,49.1,29.18,North,-999,-999.0,-999.0,33,0.00,,,0.00,WSDL version 420,2013-08-04 16:37:00,
2013-08-04 12:42:00,80.7,48.9,29.18,North,-999,-999.0,-999.0,32,-99.99,,,-99.99,WSDL version 420,2013-08-04 16:42:00,
2013-08-04 12:48:00,79.4,47.0,29.18,North,-999,-999.0,-999.0,32,0.00,,,0.00,WSDL version 420,2013-08-04 16:48:00,
2013-08-04 12:54:00,80.3,47.4,29.18,North,-999,-999.0,-999.0,31,0.00,,,0.00,WSDL version 420,2013-08-04 16:54:00,
2013-08-04 13:00:00,79.8,46.8,29.18,North,-999,-999.0,-999.0,31,0.00,,,0.00,WSDL version 420,2013-08-04 17:00:00,
2013-08-04 13:08:00,80.0,46.7,29.18,North,-999,-999.0,-999.0,31,0.00,,,0.00,WSDL version 420,2013-08-04 17:08:00,
2013-08-04 13:13:00,80.8,47.4,29.18,North,-999,-999.0,-999.0,31,0.00,,,0.00,WSDL version 420,2013-08-04 17:13:00,
2013-08-04 13:25:00,78.2,45.1,29.18,North,-999,-999.0,-999.0,31,0.00,,,0.00,WSDL version 420,2013-08-04 17:25:00,
2013-08-04 13:30:00,78.0,44.8,29.15,North,-999,-999.0,-999.0,31,0.00,,,0.00,WSDL version 420,2013-08-04 17:30:00,
2013-08-04 13:36:00,77.5,44.6,29.15,North,-999,-999.0,-999.0,31,0.00,,,0.00,WSDL version 420,2013-08-04 17:36:00,
2013-08-04 13:42:00,78.7,45.6,29.18,North,-999,-999.0,-999.0,31,0.00,,,0.00,WSDL version 420,2013-08-04 17:42:00,
2013-08-04 13:48:00,77.8,44.7,29.18,North,-999,-999.0,-999.0,31,0.00,,,0.00,WSDL version 420,2013-08-04 17:48:00,
2013-08-04 13:54:00,78.1,45.1,29.18,North,-999,-999.0,-999.0,31,0.00,,,0.00,WSDL version 420,2013-08-04 17:54:00,
2013-08-04 14:00:00,77.0,44.6,29.18,North,-999,-999.0,-999.0,32,0.00,,,0.00,WSDL version 420,2013-08-04 18:00:00,
2013-08-04 14:06:00,77.0,44.6,29.18,North,-999,-999.0,-999.0,32,0.00,,,0.00,WSDL version 420,2013-08-04 18:06:00,
2013-08-04 14:11:00,75.7,43.8,29.21,North,-999,-999.0,-999.0,32,0.00,,,0.00,WSDL version 420,2013-08-04 18:11:00,
2013-08-04 14:17:00,75.4,44.3,29.21,North,-999,-999.0,-999.0,33,0.00,,,0.00,WSDL version 420,2013-08-04 18:17:00,
2013-08-04 14:23:00,75.0,43.9,29.21,North,-999,-999.0,-999.0,33,0.00,,,0.00,WSDL version 420,2013-08-04 18:23:00,
2013-08-04 14:30:00,74.6,44.4,29.18,NNE,23,0.0,0.9,34,0.00,,,0.00,WSDL version 420,2013-08-04 18:30:00,
2013-08-04 14:36:00,73.8,43.5,29.18,NNE,23,0.0,0.9,34,0.00,,,0.00,WSDL version 420,2013-08-04 18:36:00,
2013-08-04 14:42:00,73.9,43.8,29.18,NNE,23,0.0,0.9,34,-99.99,,,-99.99,WSDL version 420,2013-08-04 18:42:00,
2013-08-04 14:50:00,72.5,42.6,29.18,North,-999,-999.0,-999.0,34,0.00,,,0.00,WSDL version 420,2013-08-04 18:50:00,
2013-08-04 14:55:00,72.4,43.2,29.18,North,-999,-999.0,-999.0,35,0.00,,,0.00,WSDL version 420,2013-08-04 18:55:00,
2013-08-04 15:01:00,72.2,42.8,29.18,North,-999,-999.0,-999.0,35,-99.99,,,-99.99,WSDL version 420,2013-08-04 19:01:00,
2013-08-04 15:07:00,71.7,41.9,-100.00,North,-999,-999.0,-999.0,34,0.00,,,0.00,WSDL version 420,2013-08-04 19:07:00,
2013-08-04 15:13:00,71.7,42.2,29.21,North,-999,-999.0,-999.0,35,0.00,,,0.00,WSDL version 420,2013-08-04 19:13:00,
2013-08-04 15:18:00,71.8,42.7,29.21,North,-999,-999.0,-999.0,35,-99.99,,,-99.99,WSDL version 420,2013-08-04 19:18:00,
2013-08-04 15:24:00,72.0,42.9,29.21,North,-999,-999.0,-999.0,35,0.00,,,0.00,WSDL version 420,2013-08-04 19:24:00,
2013-08-04 15:30:00,72.0,42.6,29.21,North,-999,-999.0,-999.0,34,-99.99,,,-99.99,WSDL version 420,2013-08-04 19:30:00,
2013-08-04 15:36:00,72.0,42.8,29.21,North,-999,-999.0,-999.0,35,0.00,,,0.00,WSDL version 420,2013-08-04 19:36:00,
2013-08-04 15:41:00,71.6,42.8,29.21,North,-999,-999.0,-999.0,36,0.00,,,0.00,WSDL version 420,2013-08-04 19:41:00,
2013-08-04 15:48:00,71.0,42.7,29.21,North,-999,-999.0,-999.0,36,0.00,,,0.00,WSDL version 420,2013-08-04 19:48:00,
2013-08-04 15:54:00,70.5,42.3,29.21,North,-999,-999.0,-999.0,36,-99.99,,,-99.99,WSDL version 420,2013-08-04 19:54:00,
2013-08-04 16:01:00,70.7,42.5,-100.00,North,-999,-999.0,-999.0,36,0.00,,,0.00,WSDL version 420,2013-08-04 20:01:00,
2013-08-04 16:07:00,71.1,43.7,-100.00,North,-999,-999.0,-999.0,37,0.00,,,0.00,WSDL version 420,2013-08-04 20:07:00,
2013-08-04 16:18:00,72.0,43.6,29.21,North,-999,-999.0,-999.0,36,-99.99,,,-99.99,WSDL version 420,2013-08-04 20:18:00,
2013-08-04 16:27:00,71.2,42.2,29.21,North,-999,-999.0,-999.0,35,0.00,,,0.00,WSDL version 420,2013-08-04 20:27:00,
2013-08-04 16:33:00,71.0,42.0,29.21,North,-999,-999.0,-999.0,35,0.00,,,0.00,WSDL version 420,2013-08-04 20:33:00,
2013-08-04 16:39:00,70.9,42.4,29.21,North,-999,-999.0,-999.0,36,0.00,,,0.00,WSDL version 420,2013-08-04 20:39:00,
2013-08-04 16:45:00,71.1,42.8,29.21,North,-999,-999.0,-999.0,36,0.00,,,0.00,WSDL version 420,2013-08-04 20:45:00,
2013-08-04 16:50:00,71.1,42.8,29.21,North,-999,-999.0,-999.0,36,0.00,,,0.00,WSDL version 420,2013-08-04 20:50:00,
2013-08-04 16:56:00,71.2,42.9,29.21,North,-999,-999.0,-999.0,36,0.00,,,0.00,WSDL version 420,2013-08-04 20:56:00,
2013-08-04 17:04:00,70.9,42.6,29.21,North,-999,-999.0,-999.0,36,0.00,,,0.00,WSDL version 420,2013-08-04 21:04:00,
2013-08-04 17:10:00,70.7,42.5,29.21,North,360,0.0,0.0,36,0.00,,,0.00,WSDL version 420,2013-08-04 21:10:00,
2013-08-04 17:17:00,70.6,42.0,29.23,North,360,0.0,0.0,35,0.00,,,0.00,WSDL version 420,2013-08-04 21:17:00,
2013-08-04 17:23:00,70.3,41.4,29.23,North,360,0.0,0.9,35,0.00,,,0.00,WSDL version 420,2013-08-04 21:23:00,
2013-08-04 17:29:00,70.1,41.2,29.21,North,360,0.0,0.9,35,0.00,,,0.00,WSDL version 420,2013-08-04 21:29:00,
2013-08-04 17:35:00,70.0,41.8,29.21,North,360,0.0,0.0,36,0.00,,,0.00,WSDL version 420,2013-08-04 21:35:00,
2013-08-04 17:44:00,69.8,42.4,-100.00,North,-999,-999.0,-999.0,37,0.00,,,0.00,WSDL version 420,2013-08-04 21:44:00,
2013-08-04 17:50:00,69.8,42.4,29.21,NW,315,0.0,0.0,37,0.00,,,0.00,WSDL version 420,2013-08-04 21:50:00,
2013-08-04 17:52:00,69.7,42.3,-100.00,NW,315,0.0,0.0,37,0.00,,,0.00,WSDL version 420,2013-08-04 21:52:00,
2013-08-04 17:58:00,69.5,42.8,29.21,NNW,338,0.0,0.0,38,-99.99,,,-99.99,WSDL version 420,2013-08-04 21:58:00,
2013-08-04 18:04:00,69.3,42.8,29.21,North,360,0.0,0.0,38,0.00,,,0.00,WSDL version 420,2013-08-04 22:04:00,
2013-08-04 18:09:00,69.3,43.3,29.21,North,360,0.0,0.0,39,0.00,,,0.00,WSDL version 420,2013-08-04 22:09:00,
2013-08-04 18:15:00,69.3,43.3,29.21,NNW,338,0.0,0.0,39,0.00,,,0.00,WSDL version 420,2013-08-04 22:15:00,
2013-08-04 18:21:00,69.3,43.3,29.21,NNW,338,0.0,0.0,39,0.00,,,0.00,WSDL version 420,2013-08-04 22:21:00,
2013-08-04 18:29:00,69.3,42.8,29.21,NNW,338,0.0,0.0,38,0.00,,,0.00,WSDL version 420,2013-08-04 22:29:00,
2013-08-04 18:35:00,69.3,42.6,29.21,NW,315,0.0,0.0,38,-99.99,,,-99.99,WSDL version 420,2013-08-04 22:35:00,
2013-08-04 18:41:00,69.1,42.4,29.21,NW,315,0.0,0.0,38,0.00,,,0.00,WSDL version 420,2013-08-04 22:41:00,
2013-08-04 18:47:00,69.1,43.1,29.21,NNW,338,0.0,0.0,39,0.00,,,0.00,WSDL version 420,2013-08-04 22:47:00,
2013-08-04 18:53:00,68.8,42.2,29.21,North,360,0.0,0.0,38,0.00,,,0.00,WSDL version 420,2013-08-04 22:53:00,
2013-08-04 18:59:00,68.6,42.7,29.21,NNW,338,0.0,0.0,39,0.00,,,0.00,WSDL version 420,2013-08-04 22:59:00,
2013-08-04 19:06:00,68.3,42.4,29.21,NNW,338,0.0,0.0,39,0.00,,,0.00,WSDL version 420,2013-08-04 23:06:00,
2013-08-04 19:16:00,67.8,43.3,29.21,North,360,0.0,0.0,41,0.00,,,0.00,WSDL version 420,2013-08-04 23:16:00,
2013-08-04 19:22:00,67.5,43.0,29.21,North,360,0.0,0.0,41,0.00,,,0.00,WSDL version 420,2013-08-04 23:22:00,
2013-08-04 19:31:00,67.3,42.8,29.21,North,360,0.0,0.0,41,0.00,,,0.00,WSDL version 420,2013-08-04 23:31:00,
2013-08-04 19:37:00,67.1,42.6,29.21,North,-999,-999.0,-999.0,41,0.00,,,0.00,WSDL version 420,2013-08-04 23:37:00,
2013-08-04 19:43:00,67.0,42.6,-100.00,North,-999,-999.0,-999.0,41,-99.99,,,-99.99,WSDL version 420,2013-08-04 23:43:00,
2013-08-04 19:49:00,66.9,42.4,29.18,North,-999,-999.0,-999.0,41,-99.99,,,-99.99,WSDL version 420,2013-08-04 23:49:00,
2013-08-04 19:55:00,66.7,42.3,29.18,North,-999,-999.0,-999.0,41,0.00,,,0.00,WSDL version 420,2013-08-04 23:55:00,
2013-08-04 20:03:00,66.3,41.9,29.18,North,-999,-999.0,-999.0,41,-99.99,,,-99.99,WSDL version 420,2013-08-05 00:03:00,
2013-08-04 20:12:00,65.8,42.4,29.18,North,-999,-999.0,-999.0,42,0.00,,,0.00,WSDL version 420,2013-08-05 00:12:00,
2013-08-04 20:18:00,65.5,42.3,29.18,North,-999,-999.0,-999.0,43,-99.99,,,-99.99,WSDL version 420,2013-08-05 00:18:00,
2013-08-04 20:24:00,65.4,42.3,29.18,North,-999,-999.0,-999.0,43,0.00,,,0.00,WSDL version 420,2013-08-05 00:24:00,
2013-08-04 20:30:00,65.1,42.1,29.18,North,-999,-999.0,-999.0,43,-99.99,,,-99.99,WSDL version 420,2013-08-05 00:30:00,
2013-08-04 20:36:00,64.8,41.8,29.18,North,-999,-999.0,-999.0,43,0.00,,,0.00,WSDL version 420,2013-08-05 00:36:00,
2013-08-04 20:42:00,64.7,41.7,29.21,North,-999,-999.0,-999.0,43,0.00,,,0.00,WSDL version 420,2013-08-05 00:42:00,
2013-08-04 20:48:00,64.4,42.0,29.21,North,-999,-999.0,-999.0,44,0.00,,,0.00,WSDL version 420,2013-08-05 00:48:00,
2013-08-04 20:54:00,64.1,41.8,29.21,North,-999,-999.0,-999.0,44,0.00,,,0.00,WSDL version 420,2013-08-05 00:54:00,
2013-08-04 21:00:00,63.8,41.7,29.21,North,-999,-999.0,-999.0,45,0.00,,,0.00,WSDL version 420,2013-08-05 01:00:00,
2013-08-04 21:06:00,63.5,41.8,29.21,North,-999,-999.0,-999.0,45,0.00,,,0.00,WSDL version 420,2013-08-05 01:06:00,
2013-08-04 21:12:00,62.9,41.3,29.23,North,-999,-999.0,-999.0,45,-99.99,,,-99.99,WSDL version 420,2013-08-05 01:12:00,
2013-08-04 21:18:00,62.4,41.2,29.23,North,-999,-999.0,-999.0,46,-99.99,,,-99.99,WSDL version 420,2013-08-05 01:18:00,
2013-08-04 21:24:00,62.0,41.3,29.23,North,-999,-999.0,-999.0,47,0.00,,,0.00,WSDL version 420,2013-08-05 01:24:00,
2013-08-04 21:30:00,61.4,41.0,29.21,North,-999,-999.0,-999.0,47,0.00,,,0.00,WSDL version 420,2013-08-05 01:30:00,
2013-08-04 21:35:00,60.9,41.1,29.21,North,-999,-999.0,-999.0,48,-99.99,,,-99.99,WSDL version 420,2013-08-05 01:35:00,
2013-08-04 21:41:00,60.4,41.7,29.23,North,-999,-999.0,-999.0,50,0.00,,,0.00,WSDL version 420,2013-08-05 01:41:00,
2013-08-04 21:47:00,59.9,41.8,29.23,North,-999,-999.0,-999.0,51,0.00,,,0.00,WSDL version 420,2013-08-05 01:47:00,
2013-08-04 21:53:00,59.6,42.0,29.23,North,-999,-999.0,-999.0,52,0.00,,,0.00,WSDL version 420,2013-08-05 01:53:00,
2013-08-04 21:59:00,59.3,42.2,29.21,North,-999,-999.0,-999.0,53,0.00,,,0.00,WSDL version 420,2013-08-05 01:59:00,
2013-08-04 22:05:00,59.1,42.4,29.21,North,-999,-999.0,-999.0,54,0.00,,,0.00,WSDL version 420,2013-08-05 02:05:00,
2013-08-04 22:11:00,58.8,42.7,29.21,North,-999,-999.0,-999.0,55,-99.99,,,-99.99,WSDL version 420,2013-08-05 02:11:00,
2013-08-04 22:17:00,58.6,42.9,29.21,North,-999,-999.0,-999.0,56,0.00,,,0.00,WSDL version 420,2013-08-05 02:17:00,
2013-08-04 22:23:00,58.8,43.2,29.21,North,-999,-999.0,-999.0,56,0.00,,,0.00,WSDL version 420,2013-08-05 02:23:00,
2013-08-04 22:28:00,58.8,43.2,29.21,North,-999,-999.0,-999.0,56,0.00,,,0.00,WSDL version 420,2013-08-05 02:28:00,
2013-08-04 22:34:00,58.8,43.5,29.21,North,-999,-999.0,-999.0,57,0.00,,,0.00,WSDL version 420,2013-08-05 02:34:00,
2013-08-04 22:41:00,58.6,43.5,29.23,North,-999,-999.0,-999.0,57,0.00,,,0.00,WSDL version 420,2013-08-05 02:41:00,
2013-08-04 22:46:00,58.6,43.9,29.23,North,-999,-999.0,-999.0,58,0.00,,,0.00,WSDL version 420,2013-08-05 02:46:00,
2013-08-04 22:52:00,58.6,43.8,29.23,North,-999,-999.0,-999.0,58,0.00,,,0.00,WSDL version 420,2013-08-05 02:52:00,
2013-08-04 22:58:00,58.6,43.9,29.21,North,-999,-999.0,-999.0,58,0.00,,,0.00,WSDL version 420,2013-08-05 02:58:00,
2013-08-04 23:04:00,58.8,44.1,29.21,North,-999,-999.0,-999.0,58,0.00,,,0.00,WSDL version 420,2013-08-05 03:04:00,
2013-08-04 23:10:00,58.8,44.1,29.21,North,-999,-999.0,-999.0,58,0.00,,,0.00,WSDL version 420,2013-08-05 03:10:00,
2013-08-04 23:16:00,58.8,44.3,-100.00,North,-999,-999.0,-999.0,59,0.00,,,0.00,WSDL version 420,2013-08-05 03:16:00,
2013-08-04 23:21:00,58.8,44.5,29.21,North,-999,-999.0,-999.0,59,0.00,,,0.00,WSDL version 420,2013-08-05 03:21:00,
2013-08-04 23:28:00,59.0,44.6,29.21,North,-999,-999.0,-999.0,59,0.00,,,0.00,WSDL version 420,2013-08-05 03:28:00,
2013-08-04 23:33:00,58.8,44.5,29.21,North,-999,-999.0,-999.0,59,0.00,,,0.00,WSDL version 420,2013-08-05 03:33:00,
2013-08-04 23:39:00,58.8,44.9,29.23,North,-999,-999.0,-999.0,60,0.00,,,0.00,WSDL version 420,2013-08-05 03:39:00,
2013-08-04 23:45:00,58.8,45.0,29.23,North,-999,-999.0,-999.0,60,0.00,,,0.00,WSDL version 420,2013-08-05 03:45:00,
2013-08-04 23:53:00,58.8,45.1,29.23,North,-999,-999.0,-999.0,61,0.00,,,0.00,WSDL version 420,2013-08-05 03:53:00,